sensor_id;sensor_type;location;lat;lon;timestamp;P1;durP1;ratioP1;P2;durP2;ratioP2
73650;SDS011;61944;52.538;6.108;2022-11-18T06:05:37;16.30;;;10.20;;
73650;SDS011;61944;52.538;6.108;2022-11-18T06:08:02;14.50;;;8.95;;
73650;SDS011;61944;52.538;6.108;2022-11-18T06:10:29;18.75;;;11.10;;
73650;SDS011;61944;52.538;6.108;2022-11-18T06:12:58;20.10;;;13.32;;
73650;SDS011;61944;52.538;6.108;2022-11-18T06:15:35;18.08;;;10.20;;
73650;SDS011;61944;52.538;6.108;2022-11-18T06:18:11;17.55;;;11.38;;
73650;SDS011;61944;52.538;6.108;2022-11-18T06:20:42;18.67;;;12.75;;
73650;SDS011;61944;52.538;6.108;2022-11-18T06:23:08;24.20;;;13.25;;
73650;SDS011;61944;52.538;6.108;2022-11-18T06:25:36;22.30;;;12.65;;
73650;SDS011;61944;52.538;6.108;2022-11-18T06:28:03;22.77;;;12.50;;
73650;SDS011;61944;52.538;6.108;2022-11-18T06:30:29;18.30;;;11.55;;
73650;SDS011;61944;52.538;6.108;2022-11-18T06:32:54;23.35;;;13.43;;
73650;SDS011;61944;52.538;6.108;2022-11-18T06:35:20;18.10;;;12.20;;
73650;SDS011;61944;52.538;6.108;2022-11-18T06:37:45;21.00;;;12.02;;
73650;SDS011;61944;52.538;6.108;2022-11-18T06:40:11;25.25;;;14.40;;
73650;SDS011;61944;52.538;6.108;2022-11-18T06:42:36;22.90;;;13.02;;
73650;SDS011;61944;52.538;6.108;2022-11-18T06:45:20;20.73;;;12.38;;
73650;SDS011;61944;52.538;6.108;2022-11-18T06:47:46;19.48;;;12.45;;
73650;SDS011;61944;52.538;6.108;2022-11-18T06:50:11;22.55;;;12.68;;
73650;SDS011;61944;52.538;6.108;2022-11-18T06:52:37;20.83;;;13.18;;
73650;SDS011;61944;52.538;6.108;2022-11-18T06:55:02;23.00;;;15.35;;
73650;SDS011;61944;52.538;6.108;2022-11-18T06:57:31;25.75;;;15.75;;
73650;SDS011;61944;52.538;6.108;2022-11-18T06:59:56;19.67;;;13.02;;
73650;SDS011;61944;52.538;6.108;2022-11-18T07:02:21;26.27;;;14.85;;
73650;SDS011;61944;52.538;6.108;2022-11-18T07:04:47;23.65;;;14.35;;
73650;SDS011;61944;52.538;6.108;2022-11-18T07:07:12;27.35;;;14.88;;
73650;SDS011;61944;52.538;6.108;2022-11-18T07:09:37;23.00;;;11.85;;
73650;SDS011;61944;52.538;6.108;2022-11-18T07:12:03;25.55;;;15.63;;
73650;SDS011;61944;52.538;6.108;2022-11-18T07:14:29;25.05;;;13.60;;
73650;SDS011;61944;52.538;6.108;2022-11-18T07:16:54;31.60;;;17.60;;
73650;SDS011;61944;52.538;6.108;2022-11-18T07:19:20;26.23;;;14.88;;
73650;SDS011;61944;52.538;6.108;2022-11-18T07:21:45;31.50;;;16.15;;
73650;SDS011;61944;52.538;6.108;2022-11-18T07:24:12;29.98;;;14.23;;
73650;SDS011;61944;52.538;6.108;2022-11-18T07:26:38;30.92;;;17.40;;
73650;SDS011;61944;52.538;6.108;2022-11-18T07:29:04;34.65;;;17.23;;
73650;SDS011;61944;52.538;6.108;2022-11-18T07:31:29;30.85;;;16.30;;
73650;SDS011;61944;52.538;6.108;2022-11-18T07:33:55;31.85;;;18.73;;
73650;SDS011;61944;52.538;6.108;2022-11-18T07:36:22;35.50;;;19.30;;
73650;SDS011;61944;52.538;6.108;2022-11-18T07:38:50;39.70;;;19.60;;
73650;SDS011;61944;52.538;6.108;2022-11-18T07:41:21;34.67;;;19.05;;
73650;SDS011;61944;52.538;6.108;2022-11-18T07:43:48;36.92;;;18.55;;
73650;SDS011;61944;52.538;6.108;2022-11-18T07:46:17;34.05;;;20.38;;
73650;SDS011;61944;52.538;6.108;2022-11-18T07:48:45;41.33;;;21.42;;
73650;SDS011;61944;52.538;6.108;2022-11-18T07:51:12;38.38;;;18.55;;
73650;SDS011;61944;52.538;6.108;2022-11-18T07:53:38;35.15;;;19.58;;
73650;SDS011;61944;52.538;6.108;2022-11-18T07:56:04;30.67;;;18.08;;
73650;SDS011;61944;52.538;6.108;2022-11-18T07:58:30;35.55;;;20.40;;
73650;SDS011;61944;52.538;6.108;2022-11-18T08:00:56;38.53;;;20.30;;
73650;SDS011;61944;52.538;6.108;2022-11-18T08:03:25;35.72;;;19.23;;
73650;SDS011;61944;52.538;6.108;2022-11-18T08:05:51;31.00;;;18.25;;
73650;SDS011;61944;52.538;6.108;2022-11-18T08:08:17;36.75;;;17.92;;
73650;SDS011;61944;52.538;6.108;2022-11-18T08:10:43;36.13;;;18.67;;
73650;SDS011;61944;52.538;6.108;2022-11-18T08:13:08;30.08;;;18.10;;
73650;SDS011;61944;52.538;6.108;2022-11-18T08:15:33;34.00;;;19.33;;
73650;SDS011;61944;52.538;6.108;2022-11-18T08:17:59;36.58;;;20.33;;
73650;SDS011;61944;52.538;6.108;2022-11-18T08:20:24;34.83;;;20.75;;
73650;SDS011;61944;52.538;6.108;2022-11-18T08:22:51;39.25;;;20.13;;
73650;SDS011;61944;52.538;6.108;2022-11-18T08:25:17;31.50;;;18.17;;
73650;SDS011;61944;52.538;6.108;2022-11-18T08:27:42;33.13;;;18.40;;
73650;SDS011;61944;52.538;6.108;2022-11-18T08:30:08;34.58;;;19.55;;
73650;SDS011;61944;52.538;6.108;2022-11-18T08:32:33;35.17;;;18.23;;
73650;SDS011;61944;52.538;6.108;2022-11-18T08:34:59;34.33;;;19.05;;
73650;SDS011;61944;52.538;6.108;2022-11-18T08:37:24;34.10;;;18.25;;
73650;SDS011;61944;52.538;6.108;2022-11-18T08:39:49;33.58;;;20.40;;
73650;SDS011;61944;52.538;6.108;2022-11-18T08:42:15;35.22;;;19.67;;
73650;SDS011;61944;52.538;6.108;2022-11-18T08:44:40;35.20;;;19.60;;
73650;SDS011;61944;52.538;6.108;2022-11-18T08:47:05;40.53;;;18.60;;
73650;SDS011;61944;52.538;6.108;2022-11-18T08:49:31;35.08;;;19.60;;
73650;SDS011;61944;52.538;6.108;2022-11-18T08:51:58;37.03;;;20.70;;
73650;SDS011;61944;52.538;6.108;2022-11-18T08:54:23;36.28;;;19.27;;
73650;SDS011;61944;52.538;6.108;2022-11-18T08:56:48;32.67;;;18.70;;
73650;SDS011;61944;52.538;6.108;2022-11-18T08:59:14;32.25;;;17.65;;
73650;SDS011;61944;52.538;6.108;2022-11-18T09:01:40;35.45;;;19.13;;
73650;SDS011;61944;52.538;6.108;2022-11-18T09:04:07;34.05;;;18.65;;
73650;SDS011;61944;52.538;6.108;2022-11-18T09:06:33;36.97;;;18.88;;
73650;SDS011;61944;52.538;6.108;2022-11-18T09:08:59;34.75;;;18.38;;
73650;SDS011;61944;52.538;6.108;2022-11-18T09:11:25;36.10;;;21.38;;
73650;SDS011;61944;52.538;6.108;2022-11-18T09:13:55;34.10;;;17.80;;
73650;SDS011;61944;52.538;6.108;2022-11-18T09:16:22;31.83;;;19.30;;
73650;SDS011;61944;52.538;6.108;2022-11-18T09:18:48;34.65;;;17.75;;
73650;SDS011;61944;52.538;6.108;2022-11-18T09:21:15;34.65;;;19.40;;
73650;SDS011;61944;52.538;6.108;2022-11-18T09:23:41;30.83;;;17.65;;
73650;SDS011;61944;52.538;6.108;2022-11-18T09:26:08;39.28;;;20.55;;
73650;SDS011;61944;52.538;6.108;2022-11-18T09:28:35;29.77;;;18.65;;
73650;SDS011;61944;52.538;6.108;2022-11-18T09:31:11;32.88;;;19.35;;
73650;SDS011;61944;52.538;6.108;2022-11-18T09:33:38;34.17;;;18.95;;
73650;SDS011;61944;52.538;6.108;2022-11-18T09:36:05;33.75;;;19.42;;
73650;SDS011;61944;52.538;6.108;2022-11-18T09:38:35;33.95;;;18.58;;
73650;SDS011;61944;52.538;6.108;2022-11-18T09:43:57;36.05;;;20.13;;
73650;SDS011;61944;52.538;6.108;2022-11-18T09:49:16;32.67;;;17.75;;
73650;SDS011;61944;52.538;6.108;2022-11-18T09:51:50;37.42;;;20.95;;
73650;SDS011;61944;52.538;6.108;2022-11-18T09:54:23;34.25;;;19.10;;
73650;SDS011;61944;52.538;6.108;2022-11-18T09:56:52;33.22;;;18.35;;
73650;SDS011;61944;52.538;6.108;2022-11-18T09:59:20;30.33;;;17.83;;
73650;SDS011;61944;52.538;6.108;2022-11-18T10:01:48;35.13;;;18.35;;
73650;SDS011;61944;52.538;6.108;2022-11-18T10:04:17;46.58;;;23.25;;
73650;SDS011;61944;52.538;6.108;2022-11-18T10:06:45;38.28;;;20.10;;
73650;SDS011;61944;52.538;6.108;2022-11-18T10:09:25;35.83;;;19.98;;
73650;SDS011;61944;52.538;6.108;2022-11-18T10:25:38;37.33;;;20.83;;
73650;SDS011;61944;52.538;6.108;2022-11-18T10:28:23;35.40;;;20.45;;
73650;SDS011;61944;52.538;6.108;2022-11-18T10:30:50;39.28;;;21.45;;
73650;SDS011;61944;52.538;6.108;2022-11-18T10:33:17;37.05;;;21.15;;
73650;SDS011;61944;52.538;6.108;2022-11-18T10:35:47;37.30;;;19.95;;
73650;SDS011;61944;52.538;6.108;2022-11-18T10:40:41;36.65;;;19.13;;
73650;SDS011;61944;52.538;6.108;2022-11-18T10:43:10;33.08;;;18.98;;
73650;SDS011;61944;52.538;6.108;2022-11-18T10:45:37;36.08;;;18.52;;
73650;SDS011;61944;52.538;6.108;2022-11-18T10:50:49;34.67;;;20.02;;
73650;SDS011;61944;52.538;6.108;2022-11-18T10:55:59;35.58;;;19.17;;
73650;SDS011;61944;52.538;6.108;2022-11-18T10:58:30;38.00;;;18.80;;
73650;SDS011;61944;52.538;6.108;2022-11-18T11:11:21;30.23;;;17.98;;
73650;SDS011;61944;52.538;6.108;2022-11-18T11:13:51;35.20;;;18.42;;
73650;SDS011;61944;52.538;6.108;2022-11-18T11:16:19;32.40;;;18.90;;
73650;SDS011;61944;52.538;6.108;2022-11-18T11:18:45;32.50;;;16.58;;
73650;SDS011;61944;52.538;6.108;2022-11-18T11:21:20;31.27;;;17.77;;
73650;SDS011;61944;52.538;6.108;2022-11-18T11:23:46;32.63;;;18.58;;
73650;SDS011;61944;52.538;6.108;2022-11-18T11:26:15;30.45;;;17.98;;
73650;SDS011;61944;52.538;6.108;2022-11-18T11:29:08;33.00;;;17.60;;
73650;SDS011;61944;52.538;6.108;2022-11-18T11:37:42;30.60;;;16.83;;
73650;SDS011;61944;52.538;6.108;2022-11-18T11:51:24;29.90;;;16.33;;
73650;SDS011;61944;52.538;6.108;2022-11-18T11:54:18;29.02;;;16.00;;
73650;SDS011;61944;52.538;6.108;2022-11-18T12:05:16;27.60;;;16.63;;
73650;SDS011;61944;52.538;6.108;2022-11-18T12:18:37;30.48;;;16.58;;
73650;SDS011;61944;52.538;6.108;2022-11-18T12:21:06;26.20;;;14.00;;
73650;SDS011;61944;52.538;6.108;2022-11-18T12:23:32;25.05;;;14.32;;
73650;SDS011;61944;52.538;6.108;2022-11-18T12:28:36;29.08;;;15.95;;
73650;SDS011;61944;52.538;6.108;2022-11-18T12:36:23;26.42;;;13.85;;
73650;SDS011;61944;52.538;6.108;2022-11-18T12:38:52;23.95;;;14.38;;
73650;SDS011;61944;52.538;6.108;2022-11-18T12:44:22;23.20;;;13.27;;
73650;SDS011;61944;52.538;6.108;2022-11-18T12:46:49;24.17;;;12.93;;
73650;SDS011;61944;52.538;6.108;2022-11-18T12:52:53;20.73;;;11.95;;
73650;SDS011;61944;52.538;6.108;2022-11-18T12:54:54;23.85;;;12.75;;
73650;SDS011;61944;52.538;6.108;2022-11-18T12:57:31;23.50;;;12.18;;
73650;SDS011;61944;52.538;6.108;2022-11-18T12:59:58;17.80;;;11.85;;
73650;SDS011;61944;52.538;6.108;2022-11-18T13:02:38;21.23;;;10.25;;
73650;SDS011;61944;52.538;6.108;2022-11-18T13:05:19;19.30;;;11.02;;
73650;SDS011;61944;52.538;6.108;2022-11-18T13:07:56;21.00;;;10.63;;
73650;SDS011;61944;52.538;6.108;2022-11-18T13:10:38;20.95;;;11.68;;
73650;SDS011;61944;52.538;6.108;2022-11-18T13:15:54;18.98;;;10.05;;
73650;SDS011;61944;52.538;6.108;2022-11-18T13:18:47;20.05;;;9.73;;
73650;SDS011;61944;52.538;6.108;2022-11-18T13:21:18;18.48;;;9.88;;
73650;SDS011;61944;52.538;6.108;2022-11-18T13:24:12;21.42;;;10.57;;
73650;SDS011;61944;52.538;6.108;2022-11-18T13:26:39;23.08;;;10.15;;
73650;SDS011;61944;52.538;6.108;2022-11-18T13:29:14;22.13;;;11.35;;
73650;SDS011;61944;52.538;6.108;2022-11-18T13:34:27;19.27;;;10.27;;
73650;SDS011;61944;52.538;6.108;2022-11-18T13:36:55;19.65;;;10.02;;
73650;SDS011;61944;52.538;6.108;2022-11-18T13:42:02;19.15;;;9.95;;
73650;SDS011;61944;52.538;6.108;2022-11-18T13:44:34;18.60;;;9.82;;
73650;SDS011;61944;52.538;6.108;2022-11-18T13:49:56;19.23;;;9.90;;
73650;SDS011;61944;52.538;6.108;2022-11-18T13:52:36;17.60;;;9.63;;
73650;SDS011;61944;52.538;6.108;2022-11-18T13:55:06;19.77;;;10.07;;
73650;SDS011;61944;52.538;6.108;2022-11-18T13:57:38;19.75;;;9.25;;
73650;SDS011;61944;52.538;6.108;2022-11-18T14:00:05;15.68;;;8.20;;
73650;SDS011;61944;52.538;6.108;2022-11-18T14:02:52;16.40;;;8.95;;
73650;SDS011;61944;52.538;6.108;2022-11-18T14:05:20;15.25;;;9.10;;
73650;SDS011;61944;52.538;6.108;2022-11-18T14:07:56;15.73;;;7.93;;
73650;SDS011;61944;52.538;6.108;2022-11-18T14:10:28;18.83;;;8.90;;
73650;SDS011;61944;52.538;6.108;2022-11-18T14:12:58;19.02;;;8.02;;
73650;SDS011;61944;52.538;6.108;2022-11-18T14:15:34;16.25;;;7.88;;
73650;SDS011;61944;52.538;6.108;2022-11-18T14:18:01;23.45;;;9.00;;
73650;SDS011;61944;52.538;6.108;2022-11-18T14:20:28;14.80;;;8.45;;
73650;SDS011;61944;52.538;6.108;2022-11-18T14:22:55;14.57;;;7.32;;
73650;SDS011;61944;52.538;6.108;2022-11-18T14:25:24;15.18;;;8.63;;
73650;SDS011;61944;52.538;6.108;2022-11-18T14:27:57;16.23;;;8.05;;
73650;SDS011;61944;52.538;6.108;2022-11-18T14:30:41;21.67;;;9.05;;
73650;SDS011;61944;52.538;6.108;2022-11-18T14:33:19;14.80;;;8.57;;
73650;SDS011;61944;52.538;6.108;2022-11-18T14:35:53;18.38;;;9.23;;
73650;SDS011;61944;52.538;6.108;2022-11-18T14:38:29;22.55;;;9.30;;
73650;SDS011;61944;52.538;6.108;2022-11-18T14:41:02;18.83;;;9.15;;
73650;SDS011;61944;52.538;6.108;2022-11-18T14:43:29;15.10;;;8.27;;
73650;SDS011;61944;52.538;6.108;2022-11-18T14:45:58;21.98;;;11.45;;
73650;SDS011;61944;52.538;6.108;2022-11-18T14:48:27;17.38;;;9.52;;
73650;SDS011;61944;52.538;6.108;2022-11-18T14:50:54;17.00;;;8.85;;
73650;SDS011;61944;52.538;6.108;2022-11-18T14:53:19;19.17;;;9.52;;
73650;SDS011;61944;52.538;6.108;2022-11-18T14:55:47;19.00;;;9.77;;
73650;SDS011;61944;52.538;6.108;2022-11-18T14:58:14;17.92;;;8.85;;
73650;SDS011;61944;52.538;6.108;2022-11-18T15:00:43;16.42;;;9.43;;
73650;SDS011;61944;52.538;6.108;2022-11-18T15:03:10;17.05;;;9.85;;
73650;SDS011;61944;52.538;6.108;2022-11-18T15:05:36;17.67;;;8.63;;
73650;SDS011;61944;52.538;6.108;2022-11-18T15:08:01;22.88;;;8.55;;
73650;SDS011;61944;52.538;6.108;2022-11-18T15:10:27;19.23;;;8.27;;
73650;SDS011;61944;52.538;6.108;2022-11-18T15:12:52;25.17;;;11.75;;
73650;SDS011;61944;52.538;6.108;2022-11-18T15:15:17;18.52;;;9.43;;
73650;SDS011;61944;52.538;6.108;2022-11-18T15:17:43;17.38;;;8.85;;
73650;SDS011;61944;52.538;6.108;2022-11-18T15:20:11;17.08;;;9.45;;
73650;SDS011;61944;52.538;6.108;2022-11-18T15:22:39;21.75;;;10.63;;
73650;SDS011;61944;52.538;6.108;2022-11-18T15:25:05;18.67;;;9.60;;
73650;SDS011;61944;52.538;6.108;2022-11-18T15:27:31;17.77;;;8.70;;
73650;SDS011;61944;52.538;6.108;2022-11-18T15:29:56;20.30;;;9.73;;
73650;SDS011;61944;52.538;6.108;2022-11-18T15:32:21;16.58;;;8.70;;
73650;SDS011;61944;52.538;6.108;2022-11-18T15:34:47;17.90;;;9.75;;
73650;SDS011;61944;52.538;6.108;2022-11-18T15:37:12;22.80;;;10.93;;
73650;SDS011;61944;52.538;6.108;2022-11-18T15:39:38;18.98;;;9.50;;
73650;SDS011;61944;52.538;6.108;2022-11-18T15:42:03;16.27;;;8.93;;
73650;SDS011;61944;52.538;6.108;2022-11-18T15:44:28;22.88;;;12.15;;
73650;SDS011;61944;52.538;6.108;2022-11-18T15:46:54;22.10;;;12.30;;
73650;SDS011;61944;52.538;6.108;2022-11-18T15:49:21;23.30;;;12.63;;
73650;SDS011;61944;52.538;6.108;2022-11-18T15:51:46;20.13;;;12.07;;
73650;SDS011;61944;52.538;6.108;2022-11-18T15:54:12;22.80;;;13.52;;
73650;SDS011;61944;52.538;6.108;2022-11-18T15:56:37;22.50;;;12.55;;
73650;SDS011;61944;52.538;6.108;2022-11-18T15:59:10;23.25;;;13.07;;
73650;SDS011;61944;52.538;6.108;2022-11-18T16:01:41;21.70;;;11.88;;
73650;SDS011;61944;52.538;6.108;2022-11-18T16:04:11;23.98;;;12.18;;
73650;SDS011;61944;52.538;6.108;2022-11-18T16:06:38;23.48;;;12.18;;
73650;SDS011;61944;52.538;6.108;2022-11-18T16:09:04;24.38;;;13.27;;
73650;SDS011;61944;52.538;6.108;2022-11-18T16:11:30;29.05;;;12.85;;
73650;SDS011;61944;52.538;6.108;2022-11-18T16:14:17;23.10;;;12.25;;
73650;SDS011;61944;52.538;6.108;2022-11-18T16:16:44;24.52;;;12.52;;
73650;SDS011;61944;52.538;6.108;2022-11-18T16:19:12;27.58;;;13.35;;
73650;SDS011;61944;52.538;6.108;2022-11-18T16:21:40;27.77;;;12.55;;
73650;SDS011;61944;52.538;6.108;2022-11-18T16:24:07;22.20;;;13.20;;
73650;SDS011;61944;52.538;6.108;2022-11-18T16:26:36;23.38;;;12.80;;
73650;SDS011;61944;52.538;6.108;2022-11-18T16:29:02;27.85;;;12.98;;
73650;SDS011;61944;52.538;6.108;2022-11-18T16:31:28;20.58;;;12.30;;
73650;SDS011;61944;52.538;6.108;2022-11-18T16:36:31;20.30;;;10.90;;
73650;SDS011;61944;52.538;6.108;2022-11-18T16:38:56;21.80;;;12.35;;
73650;SDS011;61944;52.538;6.108;2022-11-18T16:41:22;21.15;;;11.45;;
73650;SDS011;61944;52.538;6.108;2022-11-18T16:43:56;19.63;;;10.32;;
73650;SDS011;61944;52.538;6.108;2022-11-18T16:46:28;22.35;;;11.13;;
73650;SDS011;61944;52.538;6.108;2022-11-18T16:48:54;23.98;;;11.98;;
73650;SDS011;61944;52.538;6.108;2022-11-18T16:51:24;19.45;;;9.27;;
73650;SDS011;61944;52.538;6.108;2022-11-18T16:53:53;28.92;;;12.60;;
73650;SDS011;61944;52.538;6.108;2022-11-18T16:56:20;18.75;;;10.65;;
73650;SDS011;61944;52.538;6.108;2022-11-18T16:58:46;21.27;;;10.70;;
73650;SDS011;61944;52.538;6.108;2022-11-18T17:01:12;21.10;;;10.45;;
73650;SDS011;61944;52.538;6.108;2022-11-18T17:03:38;21.88;;;10.50;;
73650;SDS011;61944;52.538;6.108;2022-11-18T17:06:04;23.85;;;11.65;;
73650;SDS011;61944;52.538;6.108;2022-11-18T17:08:33;21.75;;;11.20;;
73650;SDS011;61944;52.538;6.108;2022-11-18T17:11:09;20.15;;;11.13;;
73650;SDS011;61944;52.538;6.108;2022-11-18T17:13:36;19.60;;;9.93;;
73650;SDS011;61944;52.538;6.108;2022-11-18T17:16:06;24.27;;;11.63;;
73650;SDS011;61944;52.538;6.108;2022-11-18T17:18:33;27.33;;;12.30;;
73650;SDS011;61944;52.538;6.108;2022-11-18T17:21:06;22.95;;;11.73;;
73650;SDS011;61944;52.538;6.108;2022-11-18T17:23:34;25.45;;;13.63;;
73650;SDS011;61944;52.538;6.108;2022-11-18T17:26:00;25.23;;;13.43;;
73650;SDS011;61944;52.538;6.108;2022-11-18T17:28:26;26.83;;;13.48;;
73650;SDS011;61944;52.538;6.108;2022-11-18T17:30:53;24.92;;;13.35;;
73650;SDS011;61944;52.538;6.108;2022-11-18T17:33:18;30.90;;;14.48;;
73650;SDS011;61944;52.538;6.108;2022-11-18T17:35:43;27.27;;;14.45;;
73650;SDS011;61944;52.538;6.108;2022-11-18T17:38:09;27.38;;;13.52;;
73650;SDS011;61944;52.538;6.108;2022-11-18T17:40:34;30.50;;;15.13;;
73650;SDS011;61944;52.538;6.108;2022-11-18T17:42:59;26.33;;;13.20;;
73650;SDS011;61944;52.538;6.108;2022-11-18T17:45:25;31.25;;;15.50;;
73650;SDS011;61944;52.538;6.108;2022-11-18T17:47:50;29.95;;;15.82;;
73650;SDS011;61944;52.538;6.108;2022-11-18T17:50:15;30.95;;;15.60;;
73650;SDS011;61944;52.538;6.108;2022-11-18T17:52:41;29.10;;;14.30;;
73650;SDS011;61944;52.538;6.108;2022-11-18T17:55:07;28.40;;;14.35;;
73650;SDS011;61944;52.538;6.108;2022-11-18T17:57:32;27.55;;;13.40;;
73650;SDS011;61944;52.538;6.108;2022-11-18T17:59:58;27.27;;;13.10;;
73650;SDS011;61944;52.538;6.108;2022-11-18T18:02:23;21.25;;;11.02;;
73650;SDS011;61944;52.538;6.108;2022-11-18T18:04:48;22.05;;;11.35;;
73650;SDS011;61944;52.538;6.108;2022-11-18T18:07:13;21.70;;;11.10;;
73650;SDS011;61944;52.538;6.108;2022-11-18T18:09:39;22.73;;;11.13;;
73650;SDS011;61944;52.538;6.108;2022-11-18T18:12:04;22.00;;;11.30;;
73650;SDS011;61944;52.538;6.108;2022-11-18T18:14:50;20.23;;;11.68;;
73650;SDS011;61944;52.538;6.108;2022-11-18T18:17:15;23.52;;;12.68;;
73650;SDS011;61944;52.538;6.108;2022-11-18T18:19:41;21.98;;;12.32;;
73650;SDS011;61944;52.538;6.108;2022-11-18T18:22:06;26.70;;;14.88;;
73650;SDS011;61944;52.538;6.108;2022-11-18T18:24:31;26.10;;;14.68;;
73650;SDS011;61944;52.538;6.108;2022-11-18T18:26:57;27.17;;;15.77;;
73650;SDS011;61944;52.538;6.108;2022-11-18T18:29:22;30.08;;;15.43;;
73650;SDS011;61944;52.538;6.108;2022-11-18T18:31:49;26.23;;;14.23;;
73650;SDS011;61944;52.538;6.108;2022-11-18T18:34:15;25.02;;;14.68;;
73650;SDS011;61944;52.538;6.108;2022-11-18T18:36:40;30.73;;;14.98;;
73650;SDS011;61944;52.538;6.108;2022-11-18T18:39:06;26.33;;;15.10;;
73650;SDS011;61944;52.538;6.108;2022-11-18T18:41:31;20.58;;;13.13;;
73650;SDS011;61944;52.538;6.108;2022-11-18T18:43:56;22.25;;;12.93;;
73650;SDS011;61944;52.538;6.108;2022-11-18T18:46:23;25.83;;;14.35;;
73650;SDS011;61944;52.538;6.108;2022-11-18T18:49:10;22.27;;;12.07;;
73650;SDS011;61944;52.538;6.108;2022-11-18T18:51:44;21.05;;;12.48;;
73650;SDS011;61944;52.538;6.108;2022-11-18T18:54:13;22.65;;;12.18;;
73650;SDS011;61944;52.538;6.108;2022-11-18T18:56:40;20.30;;;12.52;;
73650;SDS011;61944;52.538;6.108;2022-11-18T18:59:06;23.70;;;13.27;;
73650;SDS011;61944;52.538;6.108;2022-11-18T19:01:32;22.95;;;13.68;;
73650;SDS011;61944;52.538;6.108;2022-11-18T19:03:58;22.05;;;13.45;;
73650;SDS011;61944;52.538;6.108;2022-11-18T19:06:26;24.50;;;12.68;;
73650;SDS011;61944;52.538;6.108;2022-11-18T19:09:02;20.60;;;11.13;;
73650;SDS011;61944;52.538;6.108;2022-11-18T19:11:29;22.92;;;13.10;;
73650;SDS011;61944;52.538;6.108;2022-11-18T19:14:14;25.15;;;12.88;;
73650;SDS011;61944;52.538;6.108;2022-11-18T19:16:43;19.20;;;11.18;;
73650;SDS011;61944;52.538;6.108;2022-11-18T19:19:10;22.42;;;11.23;;
73650;SDS011;61944;52.538;6.108;2022-11-18T19:21:37;24.88;;;13.93;;
73650;SDS011;61944;52.538;6.108;2022-11-18T19:24:03;27.30;;;16.35;;
73650;SDS011;61944;52.538;6.108;2022-11-18T19:26:30;31.13;;;18.73;;
73650;SDS011;61944;52.538;6.108;2022-11-18T19:28:56;24.95;;;14.80;;
73650;SDS011;61944;52.538;6.108;2022-11-18T19:31:23;25.30;;;15.52;;
73650;SDS011;61944;52.538;6.108;2022-11-18T19:33:48;27.70;;;17.10;;
73650;SDS011;61944;52.538;6.108;2022-11-18T19:36:14;27.17;;;17.17;;
73650;SDS011;61944;52.538;6.108;2022-11-18T19:38:39;30.80;;;16.02;;
73650;SDS011;61944;52.538;6.108;2022-11-18T19:41:06;27.00;;;14.73;;
73650;SDS011;61944;52.538;6.108;2022-11-18T19:43:33;25.90;;;16.27;;
73650;SDS011;61944;52.538;6.108;2022-11-18T19:45:59;26.17;;;15.77;;
73650;SDS011;61944;52.538;6.108;2022-11-18T19:48:25;26.27;;;15.23;;
73650;SDS011;61944;52.538;6.108;2022-11-18T19:50:51;29.15;;;15.82;;
73650;SDS011;61944;52.538;6.108;2022-11-18T19:53:27;24.08;;;15.23;;
73650;SDS011;61944;52.538;6.108;2022-11-18T19:55:59;25.38;;;14.27;;
73650;SDS011;61944;52.538;6.108;2022-11-18T19:58:29;23.23;;;14.10;;
73650;SDS011;61944;52.538;6.108;2022-11-18T20:00:56;24.58;;;14.30;;
73650;SDS011;61944;52.538;6.108;2022-11-18T20:03:21;26.35;;;15.32;;
73650;SDS011;61944;52.538;6.108;2022-11-18T20:05:46;23.17;;;13.25;;
73650;SDS011;61944;52.538;6.108;2022-11-18T20:08:21;24.63;;;12.65;;
73650;SDS011;61944;52.538;6.108;2022-11-18T20:10:49;25.13;;;14.57;;
73650;SDS011;61944;52.538;6.108;2022-11-18T20:13:15;24.55;;;14.02;;
73650;SDS011;61944;52.538;6.108;2022-11-18T20:15:41;28.58;;;14.07;;
73650;SDS011;61944;52.538;6.108;2022-11-18T20:18:08;25.55;;;14.38;;
73650;SDS011;61944;52.538;6.108;2022-11-18T20:20:34;26.65;;;14.07;;
73650;SDS011;61944;52.538;6.108;2022-11-18T20:23:00;27.30;;;13.88;;
73650;SDS011;61944;52.538;6.108;2022-11-18T20:25:26;22.17;;;12.93;;
73650;SDS011;61944;52.538;6.108;2022-11-18T20:27:51;25.40;;;14.77;;
73650;SDS011;61944;52.538;6.108;2022-11-18T20:30:17;27.40;;;15.40;;
73650;SDS011;61944;52.538;6.108;2022-11-18T20:32:43;28.05;;;15.57;;
73650;SDS011;61944;52.538;6.108;2022-11-18T20:35:12;24.73;;;14.02;;
73650;SDS011;61944;52.538;6.108;2022-11-18T20:37:40;22.42;;;14.00;;
73650;SDS011;61944;52.538;6.108;2022-11-18T20:40:09;27.85;;;14.23;;
73650;SDS011;61944;52.538;6.108;2022-11-18T20:42:34;21.17;;;12.65;;
73650;SDS011;61944;52.538;6.108;2022-11-18T20:45:18;26.27;;;14.20;;
73650;SDS011;61944;52.538;6.108;2022-11-18T20:47:44;20.48;;;14.05;;
73650;SDS011;61944;52.538;6.108;2022-11-18T20:50:09;24.92;;;15.00;;
73650;SDS011;61944;52.538;6.108;2022-11-18T20:52:34;28.63;;;15.20;;
73650;SDS011;61944;52.538;6.108;2022-11-18T20:55:00;23.95;;;13.27;;
73650;SDS011;61944;52.538;6.108;2022-11-18T20:57:26;24.58;;;14.30;;
73650;SDS011;61944;52.538;6.108;2022-11-18T20:59:51;24.17;;;14.23;;
73650;SDS011;61944;52.538;6.108;2022-11-18T21:02:16;25.38;;;15.35;;
73650;SDS011;61944;52.538;6.108;2022-11-18T21:04:42;21.60;;;14.55;;
73650;SDS011;61944;52.538;6.108;2022-11-18T21:07:07;26.58;;;14.35;;
73650;SDS011;61944;52.538;6.108;2022-11-18T21:09:32;23.30;;;14.88;;
73650;SDS011;61944;52.538;6.108;2022-11-18T21:11:59;25.13;;;14.40;;
73650;SDS011;61944;52.538;6.108;2022-11-18T21:14:25;24.92;;;14.20;;
73650;SDS011;61944;52.538;6.108;2022-11-18T21:16:54;23.10;;;14.13;;
73650;SDS011;61944;52.538;6.108;2022-11-18T21:19:24;24.85;;;13.45;;
73650;SDS011;61944;52.538;6.108;2022-11-18T21:21:50;26.45;;;15.10;;
73650;SDS011;61944;52.538;6.108;2022-11-18T21:24:17;25.35;;;15.55;;
73650;SDS011;61944;52.538;6.108;2022-11-18T21:26:44;25.30;;;14.85;;
73650;SDS011;61944;52.538;6.108;2022-11-18T21:29:11;26.85;;;16.05;;
73650;SDS011;61944;52.538;6.108;2022-11-18T21:31:37;26.67;;;14.93;;
73650;SDS011;61944;52.538;6.108;2022-11-18T21:34:03;25.35;;;15.13;;
73650;SDS011;61944;52.538;6.108;2022-11-18T21:36:29;29.20;;;16.33;;
73650;SDS011;61944;52.538;6.108;2022-11-18T21:38:57;23.83;;;14.07;;
73650;SDS011;61944;52.538;6.108;2022-11-18T21:41:24;28.45;;;15.07;;
73650;SDS011;61944;52.538;6.108;2022-11-18T21:43:53;24.73;;;14.07;;
73650;SDS011;61944;52.538;6.108;2022-11-18T21:46:20;28.05;;;15.77;;
73650;SDS011;61944;52.538;6.108;2022-11-18T21:48:45;32.00;;;18.10;;
73650;SDS011;61944;52.538;6.108;2022-11-18T21:51:12;29.45;;;16.73;;
73650;SDS011;61944;52.538;6.108;2022-11-18T21:53:39;26.65;;;16.05;;
73650;SDS011;61944;52.538;6.108;2022-11-18T21:56:05;28.77;;;16.60;;
73650;SDS011;61944;52.538;6.108;2022-11-18T21:58:34;33.80;;;17.60;;
73650;SDS011;61944;52.538;6.108;2022-11-18T22:03:36;34.83;;;18.23;;
73650;SDS011;61944;52.538;6.108;2022-11-18T22:06:03;29.05;;;15.70;;
73650;SDS011;61944;52.538;6.108;2022-11-18T22:08:29;31.98;;;17.33;;
73650;SDS011;61944;52.538;6.108;2022-11-18T22:10:56;30.05;;;15.57;;
73650;SDS011;61944;52.538;6.108;2022-11-18T22:13:22;30.45;;;15.93;;
73650;SDS011;61944;52.538;6.108;2022-11-18T22:15:47;32.13;;;16.40;;
73650;SDS011;61944;52.538;6.108;2022-11-18T22:18:13;34.95;;;18.75;;